sensor_id;sensor_type;location;lat;lon;timestamp;P1;durP1;ratioP1;P2;durP2;ratioP2
53781;SDS011;39692;53.114;7.060;2023-05-10T00:00:33;10.13;;;6.55;;
53781;SDS011;39692;53.114;7.060;2023-05-10T00:02:59;11.52;;;7.07;;
53781;SDS011;39692;53.114;7.060;2023-05-10T00:05:25;9.73;;;6.25;;
53781;SDS011;39692;53.114;7.060;2023-05-10T00:07:51;10.90;;;6.22;;
53781;SDS011;39692;53.114;7.060;2023-05-10T00:10:17;9.82;;;5.97;;
53781;SDS011;39692;53.114;7.060;2023-05-10T00:12:43;10.73;;;6.40;;
53781;SDS011;39692;53.114;7.060;2023-05-10T00:15:09;10.30;;;6.47;;
53781;SDS011;39692;53.114;7.060;2023-05-10T00:17:36;10.82;;;6.32;;
53781;SDS011;39692;53.114;7.060;2023-05-10T00:20:03;13.20;;;7.40;;
53781;SDS011;39692;53.114;7.060;2023-05-10T00:22:30;11.32;;;5.57;;
53781;SDS011;39692;53.114;7.060;2023-05-10T00:24:56;11.30;;;7.32;;
53781;SDS011;39692;53.114;7.060;2023-05-10T00:27:23;10.52;;;6.63;;
53781;SDS011;39692;53.114;7.060;2023-05-10T00:29:49;11.55;;;6.55;;
53781;SDS011;39692;53.114;7.060;2023-05-10T00:32:15;13.68;;;7.13;;
53781;SDS011;39692;53.114;7.060;2023-05-10T00:34:41;11.60;;;6.88;;
53781;SDS011;39692;53.114;7.060;2023-05-10T00:37:08;12.23;;;7.25;;
53781;SDS011;39692;53.114;7.060;2023-05-10T00:39:34;10.23;;;7.47;;
53781;SDS011;39692;53.114;7.060;2023-05-10T00:42:00;7.28;;;4.00;;
53781;SDS011;39692;53.114;7.060;2023-05-10T00:44:26;10.10;;;5.22;;
53781;SDS011;39692;53.114;7.060;2023-05-10T00:46:52;8.63;;;4.07;;
53781;SDS011;39692;53.114;7.060;2023-05-10T00:49:18;7.55;;;3.90;;
53781;SDS011;39692;53.114;7.060;2023-05-10T00:51:45;7.40;;;4.32;;
53781;SDS011;39692;53.114;7.060;2023-05-10T00:54:12;6.00;;;3.45;;
53781;SDS011;39692;53.114;7.060;2023-05-10T00:56:40;6.13;;;3.75;;
53781;SDS011;39692;53.114;7.060;2023-05-10T00:59:07;5.95;;;3.63;;
53781;SDS011;39692;53.114;7.060;2023-05-10T01:01:34;6.25;;;3.90;;
53781;SDS011;39692;53.114;7.060;2023-05-10T01:04:01;5.45;;;3.17;;
53781;SDS011;39692;53.114;7.060;2023-05-10T01:06:28;7.00;;;3.85;;
53781;SDS011;39692;53.114;7.060;2023-05-10T01:08:54;5.93;;;3.90;;
53781;SDS011;39692;53.114;7.060;2023-05-10T01:11:21;6.80;;;3.85;;
53781;SDS011;39692;53.114;7.060;2023-05-10T01:13:47;7.85;;;4.70;;
53781;SDS011;39692;53.114;7.060;2023-05-10T01:16:16;8.25;;;4.53;;
53781;SDS011;39692;53.114;7.060;2023-05-10T01:18:42;10.10;;;4.80;;
53781;SDS011;39692;53.114;7.060;2023-05-10T01:29:09;8.43;;;5.22;;
53781;SDS011;39692;53.114;7.060;2023-05-10T01:31:53;8.18;;;5.25;;
53781;SDS011;39692;53.114;7.060;2023-05-10T01:34:25;6.68;;;4.13;;
53781;SDS011;39692;53.114;7.060;2023-05-10T01:37:01;8.15;;;4.63;;
53781;SDS011;39692;53.114;7.060;2023-05-10T01:39:31;9.35;;;4.78;;
53781;SDS011;39692;53.114;7.060;2023-05-10T01:46:58;6.53;;;3.85;;
53781;SDS011;39692;53.114;7.060;2023-05-10T01:49:29;9.60;;;5.20;;
53781;SDS011;39692;53.114;7.060;2023-05-10T01:51:59;8.65;;;4.65;;
53781;SDS011;39692;53.114;7.060;2023-05-10T01:54:26;8.40;;;5.00;;
53781;SDS011;39692;53.114;7.060;2023-05-10T01:56:59;10.77;;;5.43;;
53781;SDS011;39692;53.114;7.060;2023-05-10T01:59:28;7.45;;;4.78;;
53781;SDS011;39692;53.114;7.060;2023-05-10T02:01:56;7.85;;;4.55;;
53781;SDS011;39692;53.114;7.060;2023-05-10T02:04:22;7.20;;;4.03;;
53781;SDS011;39692;53.114;7.060;2023-05-10T02:06:49;7.40;;;4.18;;
53781;SDS011;39692;53.114;7.060;2023-05-10T02:09:16;6.80;;;4.28;;
53781;SDS011;39692;53.114;7.060;2023-05-10T02:11:43;8.02;;;4.68;;
53781;SDS011;39692;53.114;7.060;2023-05-10T02:14:09;9.68;;;4.78;;
53781;SDS011;39692;53.114;7.060;2023-05-10T02:16:38;6.47;;;3.95;;
53781;SDS011;39692;53.114;7.060;2023-05-10T02:19:05;7.32;;;4.63;;
53781;SDS011;39692;53.114;7.060;2023-05-10T02:21:32;7.53;;;4.20;;
53781;SDS011;39692;53.114;7.060;2023-05-10T02:23:59;7.85;;;4.78;;
53781;SDS011;39692;53.114;7.060;2023-05-10T02:26:26;7.88;;;4.68;;
53781;SDS011;39692;53.114;7.060;2023-05-10T02:28:53;9.18;;;5.43;;
53781;SDS011;39692;53.114;7.060;2023-05-10T02:31:19;9.65;;;5.75;;
53781;SDS011;39692;53.114;7.060;2023-05-10T02:33:46;8.82;;;5.30;;
53781;SDS011;39692;53.114;7.060;2023-05-10T02:36:13;7.78;;;4.25;;
53781;SDS011;39692;53.114;7.060;2023-05-10T02:38:40;8.95;;;5.20;;
53781;SDS011;39692;53.114;7.060;2023-05-10T02:41:09;8.50;;;4.28;;
53781;SDS011;39692;53.114;7.060;2023-05-10T02:43:35;7.95;;;4.15;;
53781;SDS011;39692;53.114;7.060;2023-05-10T02:46:03;7.45;;;4.57;;
53781;SDS011;39692;53.114;7.060;2023-05-10T02:48:29;8.27;;;4.55;;
53781;SDS011;39692;53.114;7.060;2023-05-10T02:51:00;9.35;;;5.15;;
53781;SDS011;39692;53.114;7.060;2023-05-10T02:53:33;8.65;;;5.25;;
53781;SDS011;39692;53.114;7.060;2023-05-10T02:56:01;7.38;;;3.90;;
53781;SDS011;39692;53.114;7.060;2023-05-10T02:58:32;9.45;;;5.07;;
53781;SDS011;39692;53.114;7.060;2023-05-10T03:00:58;9.10;;;4.97;;
53781;SDS011;39692;53.114;7.060;2023-05-10T03:03:24;7.72;;;5.07;;
53781;SDS011;39692;53.114;7.060;2023-05-10T03:05:50;8.40;;;4.63;;
53781;SDS011;39692;53.114;7.060;2023-05-10T03:08:18;6.68;;;4.03;;
53781;SDS011;39692;53.114;7.060;2023-05-10T03:11:04;6.63;;;4.20;;
53781;SDS011;39692;53.114;7.060;2023-05-10T03:14:16;8.95;;;4.40;;
53781;SDS011;39692;53.114;7.060;2023-05-10T03:16:32;6.72;;;3.90;;
53781;SDS011;39692;53.114;7.060;2023-05-10T03:19:03;5.97;;;3.65;;
53781;SDS011;39692;53.114;7.060;2023-05-10T03:21:32;7.28;;;4.50;;
53781;SDS011;39692;53.114;7.060;2023-05-10T03:23:59;6.72;;;3.95;;
53781;SDS011;39692;53.114;7.060;2023-05-10T03:26:26;7.95;;;3.53;;
53781;SDS011;39692;53.114;7.060;2023-05-10T03:28:53;8.30;;;4.40;;
53781;SDS011;39692;53.114;7.060;2023-05-10T03:31:20;7.55;;;3.83;;
53781;SDS011;39692;53.114;7.060;2023-05-10T03:33:47;8.55;;;5.18;;
53781;SDS011;39692;53.114;7.060;2023-05-10T03:36:13;8.52;;;4.78;;
53781;SDS011;39692;53.114;7.060;2023-05-10T03:38:39;6.57;;;4.20;;
53781;SDS011;39692;53.114;7.060;2023-05-10T03:41:05;7.80;;;4.78;;
53781;SDS011;39692;53.114;7.060;2023-05-10T03:43:31;10.05;;;4.60;;
53781;SDS011;39692;53.114;7.060;2023-05-10T03:45:57;8.40;;;4.85;;
53781;SDS011;39692;53.114;7.060;2023-05-10T03:48:23;11.18;;;5.18;;
53781;SDS011;39692;53.114;7.060;2023-05-10T03:50:49;9.00;;;5.03;;
53781;SDS011;39692;53.114;7.060;2023-05-10T03:53:16;9.57;;;5.80;;
53781;SDS011;39692;53.114;7.060;2023-05-10T03:55:42;8.27;;;5.00;;
53781;SDS011;39692;53.114;7.060;2023-05-10T03:58:10;7.72;;;4.35;;
53781;SDS011;39692;53.114;7.060;2023-05-10T04:00:36;8.32;;;4.63;;
53781;SDS011;39692;53.114;7.060;2023-05-10T04:03:08;8.40;;;5.05;;
53781;SDS011;39692;53.114;7.060;2023-05-10T04:05:34;9.43;;;4.75;;
53781;SDS011;39692;53.114;7.060;2023-05-10T04:08:00;8.48;;;4.90;;
53781;SDS011;39692;53.114;7.060;2023-05-10T04:10:27;9.85;;;4.88;;
53781;SDS011;39692;53.114;7.060;2023-05-10T04:12:53;9.55;;;5.20;;
53781;SDS011;39692;53.114;7.060;2023-05-10T04:15:19;11.30;;;6.38;;
53781;SDS011;39692;53.114;7.060;2023-05-10T04:17:45;9.82;;;5.53;;
53781;SDS011;39692;53.114;7.060;2023-05-10T04:20:12;13.80;;;5.90;;
53781;SDS011;39692;53.114;7.060;2023-05-10T04:22:38;8.20;;;4.95;;
53781;SDS011;39692;53.114;7.060;2023-05-10T04:25:04;10.90;;;5.30;;
53781;SDS011;39692;53.114;7.060;2023-05-10T04:27:31;8.70;;;5.45;;
53781;SDS011;39692;53.114;7.060;2023-05-10T04:29:57;10.68;;;5.10;;
53781;SDS011;39692;53.114;7.060;2023-05-10T04:32:23;10.70;;;5.22;;
53781;SDS011;39692;53.114;7.060;2023-05-10T04:34:49;8.07;;;4.95;;
53781;SDS011;39692;53.114;7.060;2023-05-10T04:37:16;10.98;;;5.63;;
53781;SDS011;39692;53.114;7.060;2023-05-10T04:39:42;10.57;;;5.90;;
53781;SDS011;39692;53.114;7.060;2023-05-10T04:42:08;11.48;;;5.90;;
53781;SDS011;39692;53.114;7.060;2023-05-10T04:44:35;12.38;;;5.88;;
53781;SDS011;39692;53.114;7.060;2023-05-10T04:47:01;10.05;;;5.30;;
53781;SDS011;39692;53.114;7.060;2023-05-10T04:49:29;10.55;;;5.93;;
53781;SDS011;39692;53.114;7.060;2023-05-10T04:51:55;11.43;;;6.20;;
53781;SDS011;39692;53.114;7.060;2023-05-10T04:54:21;12.02;;;6.68;;
53781;SDS011;39692;53.114;7.060;2023-05-10T04:56:47;11.07;;;5.55;;
53781;SDS011;39692;53.114;7.060;2023-05-10T04:59:13;10.82;;;6.00;;
53781;SDS011;39692;53.114;7.060;2023-05-10T05:01:40;8.88;;;5.28;;
53781;SDS011;39692;53.114;7.060;2023-05-10T05:04:06;10.35;;;5.63;;
53781;SDS011;39692;53.114;7.060;2023-05-10T05:06:32;9.57;;;5.30;;
53781;SDS011;39692;53.114;7.060;2023-05-10T05:08:58;9.75;;;5.38;;
53781;SDS011;39692;53.114;7.060;2023-05-10T05:11:24;9.23;;;4.57;;
53781;SDS011;39692;53.114;7.060;2023-05-10T05:13:51;11.20;;;5.15;;
53781;SDS011;39692;53.114;7.060;2023-05-10T05:16:17;11.13;;;5.20;;
53781;SDS011;39692;53.114;7.060;2023-05-10T05:18:43;8.30;;;4.88;;
53781;SDS011;39692;53.114;7.060;2023-05-10T05:21:15;8.68;;;5.07;;
53781;SDS011;39692;53.114;7.060;2023-05-10T05:23:41;6.38;;;3.88;;
53781;SDS011;39692;53.114;7.060;2023-05-10T05:26:07;8.20;;;4.47;;
53781;SDS011;39692;53.114;7.060;2023-05-10T05:28:33;10.80;;;5.20;;
53781;SDS011;39692;53.114;7.060;2023-05-10T05:31:02;8.23;;;4.13;;
53781;SDS011;39692;53.114;7.060;2023-05-10T05:33:28;5.88;;;3.90;;
53781;SDS011;39692;53.114;7.060;2023-05-10T05:35:54;6.80;;;4.10;;
53781;SDS011;39692;53.114;7.060;2023-05-10T05:38:21;6.78;;;4.22;;
53781;SDS011;39692;53.114;7.060;2023-05-10T05:40:47;8.07;;;3.70;;
53781;SDS011;39692;53.114;7.060;2023-05-10T05:43:13;6.38;;;3.67;;
53781;SDS011;39692;53.114;7.060;2023-05-10T05:45:39;6.75;;;3.78;;
53781;SDS011;39692;53.114;7.060;2023-05-10T05:48:05;7.20;;;4.07;;
53781;SDS011;39692;53.114;7.060;2023-05-10T05:50:31;6.70;;;3.60;;
53781;SDS011;39692;53.114;7.060;2023-05-10T05:52:57;6.53;;;3.58;;
53781;SDS011;39692;53.114;7.060;2023-05-10T05:55:23;6.53;;;3.88;;
53781;SDS011;39692;53.114;7.060;2023-05-10T05:57:50;6.57;;;3.55;;
53781;SDS011;39692;53.114;7.060;2023-05-10T06:00:16;8.32;;;3.92;;
53781;SDS011;39692;53.114;7.060;2023-05-10T06:02:43;6.55;;;3.63;;
53781;SDS011;39692;53.114;7.060;2023-05-10T06:05:09;7.32;;;3.45;;
53781;SDS011;39692;53.114;7.060;2023-05-10T06:07:35;7.35;;;3.88;;
53781;SDS011;39692;53.114;7.060;2023-05-10T06:10:01;6.88;;;3.33;;
53781;SDS011;39692;53.114;7.060;2023-05-10T06:12:28;5.47;;;3.28;;
53781;SDS011;39692;53.114;7.060;2023-05-10T06:14:54;5.28;;;2.88;;
53781;SDS011;39692;53.114;7.060;2023-05-10T06:17:20;5.93;;;3.45;;
53781;SDS011;39692;53.114;7.060;2023-05-10T06:19:46;5.10;;;3.00;;
53781;SDS011;39692;53.114;7.060;2023-05-10T06:22:12;5.00;;;2.63;;
53781;SDS011;39692;53.114;7.060;2023-05-10T06:24:38;3.88;;;2.35;;
53781;SDS011;39692;53.114;7.060;2023-05-10T06:27:05;3.97;;;2.55;;
53781;SDS011;39692;53.114;7.060;2023-05-10T06:29:31;4.00;;;2.65;;
53781;SDS011;39692;53.114;7.060;2023-05-10T06:31:57;8.95;;;2.17;;
53781;SDS011;39692;53.114;7.060;2023-05-10T06:34:23;4.47;;;2.45;;
53781;SDS011;39692;53.114;7.060;2023-05-10T06:36:49;4.72;;;2.22;;
53781;SDS011;39692;53.114;7.060;2023-05-10T06:39:16;3.38;;;1.77;;
53781;SDS011;39692;53.114;7.060;2023-05-10T06:41:42;3.67;;;1.77;;
53781;SDS011;39692;53.114;7.060;2023-05-10T06:44:08;3.33;;;1.40;;
53781;SDS011;39692;53.114;7.060;2023-05-10T06:46:34;2.30;;;1.35;;
53781;SDS011;39692;53.114;7.060;2023-05-10T06:49:01;2.67;;;1.10;;
53781;SDS011;39692;53.114;7.060;2023-05-10T06:51:27;1.95;;;1.20;;
53781;SDS011;39692;53.114;7.060;2023-05-10T06:53:53;2.47;;;1.40;;
53781;SDS011;39692;53.114;7.060;2023-05-10T06:56:19;3.22;;;1.42;;
53781;SDS011;39692;53.114;7.060;2023-05-10T06:58:47;2.67;;;1.33;;
53781;SDS011;39692;53.114;7.060;2023-05-10T07:01:13;2.35;;;1.02;;
53781;SDS011;39692;53.114;7.060;2023-05-10T07:03:39;2.28;;;1.15;;
53781;SDS011;39692;53.114;7.060;2023-05-10T07:06:05;1.65;;;1.02;;
53781;SDS011;39692;53.114;7.060;2023-05-10T07:08:32;1.08;;;0.63;;
53781;SDS011;39692;53.114;7.060;2023-05-10T07:11:05;1.73;;;0.85;;
53781;SDS011;39692;53.114;7.060;2023-05-10T07:13:35;1.52;;;0.70;;
53781;SDS011;39692;53.114;7.060;2023-05-10T07:16:04;0.82;;;0.50;;
53781;SDS011;39692;53.114;7.060;2023-05-10T07:18:31;1.10;;;0.60;;
53781;SDS011;39692;53.114;7.060;2023-05-10T07:20:57;1.35;;;0.52;;
53781;SDS011;39692;53.114;7.060;2023-05-10T07:23:23;1.65;;;0.75;;
53781;SDS011;39692;53.114;7.060;2023-05-10T07:25:50;1.60;;;0.90;;
53781;SDS011;39692;53.114;7.060;2023-05-10T07:28:19;1.35;;;0.77;;
53781;SDS011;39692;53.114;7.060;2023-05-10T07:30:45;2.40;;;0.80;;
53781;SDS011;39692;53.114;7.060;2023-05-10T07:33:12;3.28;;;0.90;;
53781;SDS011;39692;53.114;7.060;2023-05-10T07:35:38;1.40;;;0.75;;
53781;SDS011;39692;53.114;7.060;2023-05-10T07:38:05;1.73;;;0.90;;
53781;SDS011;39692;53.114;7.060;2023-05-10T07:40:31;3.67;;;1.30;;
53781;SDS011;39692;53.114;7.060;2023-05-10T07:42:57;2.72;;;1.15;;
53781;SDS011;39692;53.114;7.060;2023-05-10T07:45:25;3.40;;;1.20;;
53781;SDS011;39692;53.114;7.060;2023-05-10T07:47:51;3.20;;;1.15;;
53781;SDS011;39692;53.114;7.060;2023-05-10T07:50:17;3.33;;;1.40;;
53781;SDS011;39692;53.114;7.060;2023-05-10T07:52:43;1.83;;;1.00;;
53781;SDS011;39692;53.114;7.060;2023-05-10T07:55:09;2.42;;;1.20;;
53781;SDS011;39692;53.114;7.060;2023-05-10T07:57:35;3.92;;;1.52;;
53781;SDS011;39692;53.114;7.060;2023-05-10T08:00:01;3.33;;;1.60;;
53781;SDS011;39692;53.114;7.060;2023-05-10T08:02:28;3.20;;;1.58;;
53781;SDS011;39692;53.114;7.060;2023-05-10T08:04:54;2.17;;;0.98;;
53781;SDS011;39692;53.114;7.060;2023-05-10T08:07:21;2.05;;;0.93;;
53781;SDS011;39692;53.114;7.060;2023-05-10T08:09:47;1.50;;;0.70;;
53781;SDS011;39692;53.114;7.060;2023-05-10T08:12:13;1.25;;;0.75;;
53781;SDS011;39692;53.114;7.060;2023-05-10T08:14:39;1.92;;;1.00;;
53781;SDS011;39692;53.114;7.060;2023-05-10T08:17:05;2.22;;;1.02;;
53781;SDS011;39692;53.114;7.060;2023-05-10T08:19:31;2.28;;;1.10;;
53781;SDS011;39692;53.114;7.060;2023-05-10T08:21:57;4.53;;;1.15;;
53781;SDS011;39692;53.114;7.060;2023-05-10T08:24:23;1.95;;;1.08;;
53781;SDS011;39692;53.114;7.060;2023-05-10T08:26:49;2.05;;;0.95;;
53781;SDS011;39692;53.114;7.060;2023-05-10T08:29:16;1.75;;;0.80;;
53781;SDS011;39692;53.114;7.060;2023-05-10T08:31:42;1.95;;;1.10;;
53781;SDS011;39692;53.114;7.060;2023-05-10T08:34:08;2.85;;;1.48;;
53781;SDS011;39692;53.114;7.060;2023-05-10T08:36:34;3.38;;;1.13;;
53781;SDS011;39692;53.114;7.060;2023-05-10T08:39:01;3.83;;;1.75;;
53781;SDS011;39692;53.114;7.060;2023-05-10T08:41:27;2.38;;;1.35;;
53781;SDS011;39692;53.114;7.060;2023-05-10T08:43:53;2.85;;;1.55;;
53781;SDS011;39692;53.114;7.060;2023-05-10T08:46:20;4.75;;;1.75;;
53781;SDS011;39692;53.114;7.060;2023-05-10T08:48:47;2.92;;;1.80;;
53781;SDS011;39692;53.114;7.060;2023-05-10T08:51:14;3.85;;;2.28;;
53781;SDS011;39692;53.114;7.060;2023-05-10T08:53:41;3.45;;;2.10;;
53781;SDS011;39692;53.114;7.060;2023-05-10T08:56:07;4.85;;;2.35;;
53781;SDS011;39692;53.114;7.060;2023-05-10T08:58:34;3.35;;;2.00;;
53781;SDS011;39692;53.114;7.060;2023-05-10T09:01:00;2.83;;;1.95;;
53781;SDS011;39692;53.114;7.060;2023-05-10T09:03:26;3.88;;;2.33;;
53781;SDS011;39692;53.114;7.060;2023-05-10T09:05:52;2.88;;;1.83;;
53781;SDS011;39692;53.114;7.060;2023-05-10T09:08:21;3.00;;;1.90;;
53781;SDS011;39692;53.114;7.060;2023-05-10T09:10:47;3.13;;;2.13;;
53781;SDS011;39692;53.114;7.060;2023-05-10T09:13:14;3.20;;;2.17;;
53781;SDS011;39692;53.114;7.060;2023-05-10T09:15:40;2.80;;;1.90;;
53781;SDS011;39692;53.114;7.060;2023-05-10T09:18:06;3.53;;;1.40;;
53781;SDS011;39692;53.114;7.060;2023-05-10T09:20:32;2.72;;;1.58;;
53781;SDS011;39692;53.114;7.060;2023-05-10T09:22:59;3.75;;;1.88;;
53781;SDS011;39692;53.114;7.060;2023-05-10T09:25:25;3.10;;;1.95;;
53781;SDS011;39692;53.114;7.060;2023-05-10T09:27:51;3.28;;;1.90;;
53781;SDS011;39692;53.114;7.060;2023-05-10T09:30:23;4.32;;;2.28;;
53781;SDS011;39692;53.114;7.060;2023-05-10T09:32:49;3.67;;;2.63;;
53781;SDS011;39692;53.114;7.060;2023-05-10T09:35:17;4.00;;;2.60;;
53781;SDS011;39692;53.114;7.060;2023-05-10T09:37:48;3.97;;;2.67;;
53781;SDS011;39692;53.114;7.060;2023-05-10T09:42:51;4.07;;;2.90;;
53781;SDS011;39692;53.114;7.060;2023-05-10T09:45:18;4.22;;;2.75;;
53781;SDS011;39692;53.114;7.060;2023-05-10T09:47:45;4.65;;;2.97;;
53781;SDS011;39692;53.114;7.060;2023-05-10T09:50:11;4.90;;;2.88;;
53781;SDS011;39692;53.114;7.060;2023-05-10T09:55:16;4.30;;;2.63;;
53781;SDS011;39692;53.114;7.060;2023-05-10T09:57:43;4.85;;;2.45;;
53781;SDS011;39692;53.114;7.060;2023-05-10T10:00:09;3.95;;;2.10;;
53781;SDS011;39692;53.114;7.060;2023-05-10T10:02:35;4.28;;;2.55;;
53781;SDS011;39692;53.114;7.060;2023-05-10T10:05:02;4.15;;;1.92;;
53781;SDS011;39692;53.114;7.060;2023-05-10T10:07:28;3.83;;;2.58;;
53781;SDS011;39692;53.114;7.060;2023-05-10T10:09:54;4.28;;;2.42;;
53781;SDS011;39692;53.114;7.060;2023-05-10T10:12:21;6.32;;;3.80;;
53781;SDS011;39692;53.114;7.060;2023-05-10T10:14:47;5.55;;;3.17;;
53781;SDS011;39692;53.114;7.060;2023-05-10T10:17:15;6.10;;;3.90;;
53781;SDS011;39692;53.114;7.060;2023-05-10T10:19:41;4.10;;;2.65;;
53781;SDS011;39692;53.114;7.060;2023-05-10T10:22:07;4.22;;;2.95;;
53781;SDS011;39692;53.114;7.060;2023-05-10T10:24:36;3.20;;;2.17;;
53781;SDS011;39692;53.114;7.060;2023-05-10T10:32:19;5.43;;;2.60;;
53781;SDS011;39692;53.114;7.060;2023-05-10T10:34:46;3.85;;;2.47;;
53781;SDS011;39692;53.114;7.060;2023-05-10T10:37:12;3.45;;;1.95;;
53781;SDS011;39692;53.114;7.060;2023-05-10T10:39:38;3.85;;;2.60;;
53781;SDS011;39692;53.114;7.060;2023-05-10T10:42:05;4.10;;;2.78;;
53781;SDS011;39692;53.114;7.060;2023-05-10T10:52:13;3.70;;;2.60;;
53781;SDS011;39692;53.114;7.060;2023-05-10T10:54:41;3.58;;;2.72;;
53781;SDS011;39692;53.114;7.060;2023-05-10T10:57:13;5.20;;;2.55;;
53781;SDS011;39692;53.114;7.060;2023-05-10T10:59:44;3.13;;;2.10;;
53781;SDS011;39692;53.114;7.060;2023-05-10T11:02:31;2.85;;;2.00;;
53781;SDS011;39692;53.114;7.060;2023-05-10T11:04:58;3.60;;;2.60;;
53781;SDS011;39692;53.114;7.060;2023-05-10T11:07:24;3.17;;;2.30;;
53781;SDS011;39692;53.114;7.060;2023-05-10T11:09:50;2.90;;;2.28;;
53781;SDS011;39692;53.114;7.060;2023-05-10T11:12:18;3.50;;;2.58;;
53781;SDS011;39692;53.114;7.060;2023-05-10T11:14:49;3.67;;;2.40;;
53781;SDS011;39692;53.114;7.060;2023-05-10T11:17:26;4.43;;;3.03;;
53781;SDS011;39692;53.114;7.060;2023-05-10T11:20:09;4.32;;;2.92;;
53781;SDS011;39692;53.114;7.060;2023-05-10T11:22:51;4.55;;;3.60;;
53781;SDS011;39692;53.114;7.060;2023-05-10T11:25:17;4.28;;;2.92;;
53781;SDS011;39692;53.114;7.060;2023-05-10T11:27:44;4.57;;;3.72;;
53781;SDS011;39692;53.114;7.060;2023-05-10T11:30:10;3.83;;;3.38;;
53781;SDS011;39692;53.114;7.060;2023-05-10T11:32:40;4.03;;;3.13;;
53781;SDS011;39692;53.114;7.060;2023-05-10T11:35:07;3.72;;;2.97;;
53781;SDS011;39692;53.114;7.060;2023-05-10T11:37:33;5.50;;;3.47;;
53781;SDS011;39692;53.114;7.060;2023-05-10T11:39:59;3.88;;;2.72;;
53781;SDS011;39692;53.114;7.060;2023-05-10T11:42:25;4.25;;;3.03;;
53781;SDS011;39692;53.114;7.060;2023-05-10T11:44:53;4.15;;;2.88;;
53781;SDS011;39692;53.114;7.060;2023-05-10T11:47:19;4.40;;;2.53;;
53781;SDS011;39692;53.114;7.060;2023-05-10T11:49:45;3.78;;;2.75;;
53781;SDS011;39692;53.114;7.060;2023-05-10T11:52:12;3.97;;;2.60;;
53781;SDS011;39692;53.114;7.060;2023-05-10T11:54:44;3.15;;;2.13;;
53781;SDS011;39692;53.114;7.060;2023-05-10T11:57:11;3.10;;;2.15;;
53781;SDS011;39692;53.114;7.060;2023-05-10T11:59:37;3.50;;;2.33;;
53781;SDS011;39692;53.114;7.060;2023-05-10T12:02:03;2.67;;;1.77;;
53781;SDS011;39692;53.114;7.060;2023-05-10T12:04:29;3.58;;;2.45;;
53781;SDS011;39692;53.114;7.060;2023-05-10T12:06:55;3.38;;;1.70;;
53781;SDS011;39692;53.114;7.060;2023-05-10T12:09:21;2.67;;;1.50;;
53781;SDS011;39692;53.114;7.060;2023-05-10T12:11:47;3.28;;;1.90;;
53781;SDS011;39692;53.114;7.060;2023-05-10T12:14:13;2.83;;;1.55;;
53781;SDS011;39692;53.114;7.060;2023-05-10T12:16:40;2.80;;;1.88;;
53781;SDS011;39692;53.114;7.060;2023-05-10T12:19:08;3.30;;;1.85;;
53781;SDS011;39692;53.114;7.060;2023-05-10T12:21:34;3.40;;;1.83;;
53781;SDS011;39692;53.114;7.060;2023-05-10T12:24:01;4.30;;;2.45;;
53781;SDS011;39692;53.114;7.060;2023-05-10T12:26:28;4.40;;;2.13;;
53781;SDS011;39692;53.114;7.060;2023-05-10T12:28:55;3.47;;;1.60;;
53781;SDS011;39692;53.114;7.060;2023-05-10T12:31:21;3.97;;;1.95;;
53781;SDS011;39692;53.114;7.060;2023-05-10T12:33:47;4.45;;;2.50;;
53781;SDS011;39692;53.114;7.060;2023-05-10T12:36:15;3.50;;;2.35;;
53781;SDS011;39692;53.114;7.060;2023-05-10T12:38:41;5.30;;;2.22;;
53781;SDS011;39692;53.114;7.060;2023-05-10T12:41:15;4.72;;;3.63;;
53781;SDS011;39692;53.114;7.060;2023-05-10T12:43:42;5.78;;;3.97;;
53781;SDS011;39692;53.114;7.060;2023-05-10T12:46:09;6.07;;;3.75;;
53781;SDS011;39692;53.114;7.060;2023-05-10T12:48:36;5.00;;;3.60;;
53781;SDS011;39692;53.114;7.060;2023-05-10T12:51:03;5.07;;;3.65;;
53781;SDS011;39692;53.114;7.060;2023-05-10T12:53:29;5.28;;;3.47;;
53781;SDS011;39692;53.114;7.060;2023-05-10T12:55:55;5.47;;;3.53;;
53781;SDS011;39692;53.114;7.060;2023-05-10T12:58:22;5.55;;;3.28;;
53781;SDS011;39692;53.114;7.060;2023-05-10T13:00:48;7.18;;;3.58;;
53781;SDS011;39692;53.114;7.060;2023-05-10T13:03:14;6.30;;;3.60;;
53781;SDS011;39692;53.114;7.060;2023-05-10T13:05:40;6.07;;;3.47;;
53781;SDS011;39692;53.114;7.060;2023-05-10T13:08:06;6.10;;;3.67;;
53781;SDS011;39692;53.114;7.060;2023-05-10T13:10:32;6.25;;;3.85;;
53781;SDS011;39692;53.114;7.060;2023-05-10T13:12:59;5.88;;;3.78;;
53781;SDS011;39692;53.114;7.060;2023-05-10T13:15:25;5.88;;;3.30;;
53781;SDS011;39692;53.114;7.060;2023-05-10T13:17:51;6.72;;;3.97;;
53781;SDS011;39692;53.114;7.060;2023-05-10T13:20:17;6.07;;;4.25;;
53781;SDS011;39692;53.114;7.060;2023-05-10T13:22:43;7.75;;;5.25;;
53781;SDS011;39692;53.114;7.060;2023-05-10T13:25:10;7.05;;;4.53;;
53781;SDS011;39692;53.114;7.060;2023-05-10T13:27:36;5.68;;;4.43;;
53781;SDS011;39692;53.114;7.060;2023-05-10T13:30:03;8.98;;;5.53;;
53781;SDS011;39692;53.114;7.060;2023-05-10T13:32:29;6.43;;;4.53;;
53781;SDS011;39692;53.114;7.060;2023-05-10T13:34:55;7.47;;;4.82;;
53781;SDS011;39692;53.114;7.060;2023-05-10T13:37:22;6.50;;;4.35;;
53781;SDS011;39692;53.114;7.060;2023-05-10T13:39:48;5.80;;;3.40;;
53781;SDS011;39692;53.114;7.060;2023-05-10T13:42:14;6.15;;;3.95;;
53781;SDS011;39692;53.114;7.060;2023-05-10T13:44:40;5.13;;;3.83;;
53781;SDS011;39692;53.114;7.060;2023-05-10T13:47:06;7.57;;;4.20;;
53781;SDS011;39692;53.114;7.060;2023-05-10T13:49:32;7.47;;;4.43;;
53781;SDS011;39692;53.114;7.060;2023-05-10T13:51:59;5.90;;;3.60;;
53781;SDS011;39692;53.114;7.060;2023-05-10T13:54:32;5.32;;;4.15;;
53781;SDS011;39692;53.114;7.060;2023-05-10T13:56:58;5.78;;;4.53;;
53781;SDS011;39692;53.114;7.060;2023-05-10T13:59:24;5.93;;;4.43;;
53781;SDS011;39692;53.114;7.060;2023-05-10T14:01:50;8.00;;;4.68;;
53781;SDS011;39692;53.114;7.060;2023-05-10T14:04:16;6.65;;;4.95;;
53781;SDS011;39692;53.114;7.060;2023-05-10T14:06:42;7.40;;;4.72;;
53781;SDS011;39692;53.114;7.060;2023-05-10T14:09:08;4.43;;;3.42;;
53781;SDS011;39692;53.114;7.060;2023-05-10T14:11:34;4.57;;;3.65;;
53781;SDS011;39692;53.114;7.060;2023-05-10T14:14:00;5.28;;;3.75;;
53781;SDS011;39692;53.114;7.060;2023-05-10T14:16:27;5.97;;;3.78;;
53781;SDS011;39692;53.114;7.060;2023-05-10T14:18:53;5.40;;;3.85;;
53781;SDS011;39692;53.114;7.060;2023-05-10T14:21:19;7.03;;;3.35;;
53781;SDS011;39692;53.114;7.060;2023-05-10T14:23:45;6.47;;;4.30;;
53781;SDS011;39692;53.114;7.060;2023-05-10T14:26:12;5.15;;;3.60;;
53781;SDS011;39692;53.114;7.060;2023-05-10T14:28:38;6.82;;;4.55;;
53781;SDS011;39692;53.114;7.060;2023-05-10T14:31:04;9.80;;;5.22;;
53781;SDS011;39692;53.114;7.060;2023-05-10T14:33:30;7.50;;;4.70;;
53781;SDS011;39692;53.114;7.060;2023-05-10T14:35:56;7.22;;;5.00;;
53781;SDS011;39692;53.114;7.060;2023-05-10T14:38:22;6.97;;;4.53;;
53781;SDS011;39692;53.114;7.060;2023-05-10T14:40:49;8.15;;;5.05;;
53781;SDS011;39692;53.114;7.060;2023-05-10T14:43:15;7.32;;;5.00;;
53781;SDS011;39692;53.114;7.060;2023-05-10T14:45:41;8.25;;;5.78;;
53781;SDS011;39692;53.114;7.060;2023-05-10T14:48:07;7.30;;;5.43;;
53781;SDS011;39692;53.114;7.060;2023-05-10T14:50:36;7.43;;;5.80;;
53781;SDS011;39692;53.114;7.060;2023-05-10T14:53:02;7.57;;;5.50;;
53781;SDS011;39692;53.114;7.060;2023-05-10T14:55:28;6.63;;;5.22;;
53781;SDS011;39692;53.114;7.060;2023-05-10T14:57:55;8.13;;;5.10;;
53781;SDS011;39692;53.114;7.060;2023-05-10T15:00:21;7.72;;;5.93;;
53781;SDS011;39692;53.114;7.060;2023-05-10T15:02:47;9.23;;;5.10;;
53781;SDS011;39692;53.114;7.060;2023-05-10T15:05:13;7.38;;;5.03;;
53781;SDS011;39692;53.114;7.060;2023-05-10T15:07:40;8.50;;;5.50;;
53781;SDS011;39692;53.114;7.060;2023-05-10T15:10:08;7.53;;;5.65;;
53781;SDS011;39692;53.114;7.060;2023-05-10T15:12:35;7.38;;;4.97;;
53781;SDS011;39692;53.114;7.060;2023-05-10T15:15:01;7.63;;;4.65;;